sensor_id;sensor_type;location;lat;lon;timestamp;temperature;humidity
30594;DHT22;33199;47.590;8.300;2022-12-10T00:02:03;8.20;75.60
30594;DHT22;33199;47.590;8.300;2022-12-10T00:04:28;8.20;75.60
30594;DHT22;33199;47.590;8.300;2022-12-10T00:06:54;8.30;75.60
30594;DHT22;33199;47.590;8.300;2022-12-10T00:09:20;8.30;75.70
30594;DHT22;33199;47.590;8.300;2022-12-10T00:11:45;8.20;75.90
30594;DHT22;33199;47.590;8.300;2022-12-10T00:14:11;8.30;75.70
30594;DHT22;33199;47.590;8.300;2022-12-10T00:16:37;8.30;75.80
30594;DHT22;33199;47.590;8.300;2022-12-10T00:19:04;8.20;75.60
30594;DHT22;33199;47.590;8.300;2022-12-10T00:21:30;8.20;75.80
30594;DHT22;33199;47.590;8.300;2022-12-10T00:23:56;8.20;75.80
30594;DHT22;33199;47.590;8.300;2022-12-10T00:26:23;8.20;75.50
30594;DHT22;33199;47.590;8.300;2022-12-10T00:28:49;8.30;75.70
30594;DHT22;33199;47.590;8.300;2022-12-10T00:31:16;8.20;75.70
30594;DHT22;33199;47.590;8.300;2022-12-10T00:33:42;8.20;75.70
30594;DHT22;33199;47.590;8.300;2022-12-10T00:36:14;8.20;75.80
30594;DHT22;33199;47.590;8.300;2022-12-10T00:38:40;8.20;75.70
30594;DHT22;33199;47.590;8.300;2022-12-10T00:41:06;8.20;76.00
30594;DHT22;33199;47.590;8.300;2022-12-10T00:43:31;8.20;76.00
30594;DHT22;33199;47.590;8.300;2022-12-10T00:45:57;8.20;75.80
30594;DHT22;33199;47.590;8.300;2022-12-10T00:48:22;8.20;75.70
30594;DHT22;33199;47.590;8.300;2022-12-10T00:51:22;8.20;76.00
30594;DHT22;33199;47.590;8.300;2022-12-10T00:53:40;8.30;76.10
30594;DHT22;33199;47.590;8.300;2022-12-10T00:56:07;8.30;75.80
30594;DHT22;33199;47.590;8.300;2022-12-10T00:58:33;8.20;76.10
30594;DHT22;33199;47.590;8.300;2022-12-10T01:03:33;8.30;75.80
30594;DHT22;33199;47.590;8.300;2022-12-10T01:06:07;8.30;76.00
30594;DHT22;33199;47.590;8.300;2022-12-10T01:08:32;8.30;76.00
30594;DHT22;33199;47.590;8.300;2022-12-10T01:10:58;8.30;75.90
30594;DHT22;33199;47.590;8.300;2022-12-10T01:13:23;8.20;75.90
30594;DHT22;33199;47.590;8.300;2022-12-10T01:15:49;8.30;75.90
30594;DHT22;33199;47.590;8.300;2022-12-10T01:18:14;8.30;75.90
30594;DHT22;33199;47.590;8.300;2022-12-10T01:20:39;8.30;75.70
30594;DHT22;33199;47.590;8.300;2022-12-10T01:23:05;8.30;76.00
30594;DHT22;33199;47.590;8.300;2022-12-10T01:25:30;8.30;75.80
30594;DHT22;33199;47.590;8.300;2022-12-10T01:27:56;8.30;75.90
30594;DHT22;33199;47.590;8.300;2022-12-10T01:30:21;8.30;75.80
30594;DHT22;33199;47.590;8.300;2022-12-10T01:32:47;8.20;75.80
30594;DHT22;33199;47.590;8.300;2022-12-10T01:35:12;8.30;76.00
30594;DHT22;33199;47.590;8.300;2022-12-10T01:37:38;8.30;76.00
30594;DHT22;33199;47.590;8.300;2022-12-10T01:40:03;8.30;75.80
30594;DHT22;33199;47.590;8.300;2022-12-10T01:42:29;8.30;76.00
30594;DHT22;33199;47.590;8.300;2022-12-10T01:44:58;8.30;76.10
30594;DHT22;33199;47.590;8.300;2022-12-10T01:47:24;8.30;76.30
30594;DHT22;33199;47.590;8.300;2022-12-10T01:49:49;8.20;76.00
30594;DHT22;33199;47.590;8.300;2022-12-10T01:52:15;8.20;76.00
30594;DHT22;33199;47.590;8.300;2022-12-10T01:54:42;8.30;76.20
30594;DHT22;33199;47.590;8.300;2022-12-10T01:57:21;8.30;76.30
30594;DHT22;33199;47.590;8.300;2022-12-10T01:59:55;8.20;76.10
30594;DHT22;33199;47.590;8.300;2022-12-10T02:07:29;8.30;76.30
30594;DHT22;33199;47.590;8.300;2022-12-10T02:09:59;8.30;76.00
30594;DHT22;33199;47.590;8.300;2022-12-10T02:12:49;8.30;76.20
30594;DHT22;33199;47.590;8.300;2022-12-10T02:15:14;8.20;76.00
30594;DHT22;33199;47.590;8.300;2022-12-10T02:17:45;8.30;76.20
30594;DHT22;33199;47.590;8.300;2022-12-10T02:20:21;8.20;75.90
30594;DHT22;33199;47.590;8.300;2022-12-10T02:22:50;8.30;76.20
30594;DHT22;33199;47.590;8.300;2022-12-10T02:25:17;8.20;76.00
30594;DHT22;33199;47.590;8.300;2022-12-10T02:27:57;8.20;76.10
30594;DHT22;33199;47.590;8.300;2022-12-10T02:30:25;8.30;76.00
30594;DHT22;33199;47.590;8.300;2022-12-10T02:32:51;8.30;76.10
30594;DHT22;33199;47.590;8.300;2022-12-10T02:35:23;8.20;76.00
30594;DHT22;33199;47.590;8.300;2022-12-10T02:37:51;8.20;76.00
30594;DHT22;33199;47.590;8.300;2022-12-10T02:40:19;8.30;76.10
30594;DHT22;33199;47.590;8.300;2022-12-10T02:42:46;8.20;76.10
30594;DHT22;33199;47.590;8.300;2022-12-10T02:45:13;8.30;76.20
30594;DHT22;33199;47.590;8.300;2022-12-10T02:47:39;8.30;76.00
30594;DHT22;33199;47.590;8.300;2022-12-10T02:50:05;8.30;76.00
30594;DHT22;33199;47.590;8.300;2022-12-10T02:52:31;8.30;76.00
30594;DHT22;33199;47.590;8.300;2022-12-10T02:54:57;8.30;76.00
30594;DHT22;33199;47.590;8.300;2022-12-10T03:00:10;8.30;76.10
30594;DHT22;33199;47.590;8.300;2022-12-10T03:07:49;8.30;76.20
30594;DHT22;33199;47.590;8.300;2022-12-10T03:12:43;8.30;76.10
30594;DHT22;33199;47.590;8.300;2022-12-10T03:15:10;8.20;76.00
30594;DHT22;33199;47.590;8.300;2022-12-10T03:17:36;8.30;76.10
30594;DHT22;33199;47.590;8.300;2022-12-10T03:20:03;8.30;76.20
30594;DHT22;33199;47.590;8.300;2022-12-10T03:22:29;8.30;76.20
30594;DHT22;33199;47.590;8.300;2022-12-10T03:24:55;8.30;76.10
30594;DHT22;33199;47.590;8.300;2022-12-10T03:27:22;8.30;76.10
30594;DHT22;33199;47.590;8.300;2022-12-10T03:29:49;8.20;76.10
30594;DHT22;33199;47.590;8.300;2022-12-10T03:32:16;8.30;76.00
30594;DHT22;33199;47.590;8.300;2022-12-10T03:34:42;8.30;76.00
30594;DHT22;33199;47.590;8.300;2022-12-10T03:37:08;8.20;76.00
30594;DHT22;33199;47.590;8.300;2022-12-10T03:39:34;8.20;76.10
30594;DHT22;33199;47.590;8.300;2022-12-10T03:41:59;8.30;76.20
30594;DHT22;33199;47.590;8.300;2022-12-10T03:44:32;8.30;76.10
30594;DHT22;33199;47.590;8.300;2022-12-10T03:46:58;8.30;76.20
30594;DHT22;33199;47.590;8.300;2022-12-10T03:49:24;8.30;76.00
30594;DHT22;33199;47.590;8.300;2022-12-10T03:51:50;8.30;76.20
30594;DHT22;33199;47.590;8.300;2022-12-10T03:54:15;8.30;76.10
30594;DHT22;33199;47.590;8.300;2022-12-10T03:56:40;8.20;75.90
30594;DHT22;33199;47.590;8.300;2022-12-10T03:59:06;8.30;76.20
30594;DHT22;33199;47.590;8.300;2022-12-10T04:01:32;8.20;76.10
30594;DHT22;33199;47.590;8.300;2022-12-10T04:03:57;8.20;76.10
30594;DHT22;33199;47.590;8.300;2022-12-10T04:06:23;8.20;76.20
30594;DHT22;33199;47.590;8.300;2022-12-10T04:08:48;8.20;76.50
30594;DHT22;33199;47.590;8.300;2022-12-10T04:11:14;8.20;76.10
30594;DHT22;33199;47.590;8.300;2022-12-10T04:13:40;8.30;76.30
30594;DHT22;33199;47.590;8.300;2022-12-10T04:16:25;8.30;76.30
30594;DHT22;33199;47.590;8.300;2022-12-10T04:19:01;8.30;76.30
30594;DHT22;33199;47.590;8.300;2022-12-10T04:21:28;8.20;76.30
30594;DHT22;33199;47.590;8.300;2022-12-10T04:24:12;8.20;76.20
30594;DHT22;33199;47.590;8.300;2022-12-10T04:26:57;8.30;76.20
30594;DHT22;33199;47.590;8.300;2022-12-10T04:29:27;8.30;76.30
30594;DHT22;33199;47.590;8.300;2022-12-10T04:31:53;8.30;76.30
30594;DHT22;33199;47.590;8.300;2022-12-10T04:34:18;8.30;76.20
30594;DHT22;33199;47.590;8.300;2022-12-10T04:36:44;8.30;76.50
30594;DHT22;33199;47.590;8.300;2022-12-10T04:39:09;8.20;76.10
30594;DHT22;33199;47.590;8.300;2022-12-10T04:41:38;8.20;76.50
30594;DHT22;33199;47.590;8.300;2022-12-10T04:44:04;8.20;76.30
30594;DHT22;33199;47.590;8.300;2022-12-10T04:46:30;8.20;76.30
30594;DHT22;33199;47.590;8.300;2022-12-10T04:48:55;8.20;76.50
30594;DHT22;33199;47.590;8.300;2022-12-10T04:51:21;8.30;76.30
30594;DHT22;33199;47.590;8.300;2022-12-10T04:53:46;8.20;76.20
30594;DHT22;33199;47.590;8.300;2022-12-10T04:56:12;8.30;76.30
30594;DHT22;33199;47.590;8.300;2022-12-10T04:58:37;8.30;76.10
30594;DHT22;33199;47.590;8.300;2022-12-10T05:01:07;8.30;76.20
30594;DHT22;33199;47.590;8.300;2022-12-10T05:03:33;8.30;76.60
30594;DHT22;33199;47.590;8.300;2022-12-10T05:06:06;8.30;76.60
30594;DHT22;33199;47.590;8.300;2022-12-10T05:08:32;8.30;76.30
30594;DHT22;33199;47.590;8.300;2022-12-10T05:11:04;8.30;76.30
30594;DHT22;33199;47.590;8.300;2022-12-10T05:13:30;8.30;76.50
30594;DHT22;33199;47.590;8.300;2022-12-10T05:15:57;8.30;76.30
30594;DHT22;33199;47.590;8.300;2022-12-10T05:18:22;8.30;76.30
30594;DHT22;33199;47.590;8.300;2022-12-10T05:20:49;8.30;76.20
30594;DHT22;33199;47.590;8.300;2022-12-10T05:23:15;8.30;76.30
30594;DHT22;33199;47.590;8.300;2022-12-10T05:26:06;8.30;76.40
30594;DHT22;33199;47.590;8.300;2022-12-10T05:28:34;8.30;76.20
30594;DHT22;33199;47.590;8.300;2022-12-10T05:31:00;8.20;76.20
30594;DHT22;33199;47.590;8.300;2022-12-10T05:33:26;8.30;76.60
30594;DHT22;33199;47.590;8.300;2022-12-10T05:35:59;8.20;76.30
30594;DHT22;33199;47.590;8.300;2022-12-10T05:38:25;8.20;76.50
30594;DHT22;33199;47.590;8.300;2022-12-10T05:40:50;8.20;76.50
30594;DHT22;33199;47.590;8.300;2022-12-10T05:43:16;8.20;76.50
30594;DHT22;33199;47.590;8.300;2022-12-10T05:45:41;8.20;76.50
30594;DHT22;33199;47.590;8.300;2022-12-10T05:48:08;8.20;76.40
30594;DHT22;33199;47.590;8.300;2022-12-10T05:50:33;8.30;76.60
30594;DHT22;33199;47.590;8.300;2022-12-10T05:52:58;8.30;76.60
30594;DHT22;33199;47.590;8.300;2022-12-10T05:55:24;8.20;76.50
30594;DHT22;33199;47.590;8.300;2022-12-10T05:57:51;8.30;76.60
30594;DHT22;33199;47.590;8.300;2022-12-10T06:00:17;8.30;76.40
30594;DHT22;33199;47.590;8.300;2022-12-10T06:02:42;8.30;76.50
30594;DHT22;33199;47.590;8.300;2022-12-10T06:05:08;8.30;76.30
30594;DHT22;33199;47.590;8.300;2022-12-10T06:07:35;8.30;76.30
30594;DHT22;33199;47.590;8.300;2022-12-10T06:10:00;8.30;76.60
30594;DHT22;33199;47.590;8.300;2022-12-10T06:12:25;8.20;76.30
30594;DHT22;33199;47.590;8.300;2022-12-10T06:14:51;8.20;76.40
30594;DHT22;33199;47.590;8.300;2022-12-10T06:17:16;8.20;76.50
30594;DHT22;33199;47.590;8.300;2022-12-10T06:19:42;8.20;76.50
30594;DHT22;33199;47.590;8.300;2022-12-10T06:22:07;8.20;76.40
30594;DHT22;33199;47.590;8.300;2022-12-10T06:24:33;8.30;76.50
30594;DHT22;33199;47.590;8.300;2022-12-10T06:26:58;8.20;76.40
30594;DHT22;33199;47.590;8.300;2022-12-10T06:29:24;8.30;76.50
30594;DHT22;33199;47.590;8.300;2022-12-10T06:31:49;8.30;76.50
30594;DHT22;33199;47.590;8.300;2022-12-10T06:34:15;8.30;76.30
30594;DHT22;33199;47.590;8.300;2022-12-10T06:36:40;8.20;76.30
30594;DHT22;33199;47.590;8.300;2022-12-10T06:39:06;8.20;76.50
30594;DHT22;33199;47.590;8.300;2022-12-10T06:41:31;8.30;76.40
30594;DHT22;33199;47.590;8.300;2022-12-10T06:43:56;8.20;77.20
30594;DHT22;33199;47.590;8.300;2022-12-10T06:46:24;8.30;76.50
30594;DHT22;33199;47.590;8.300;2022-12-10T06:48:50;8.30;76.30
30594;DHT22;33199;47.590;8.300;2022-12-10T06:51:15;8.30;76.30
30594;DHT22;33199;47.590;8.300;2022-12-10T06:53:42;8.30;76.50
30594;DHT22;33199;47.590;8.300;2022-12-10T06:56:11;8.30;76.60
30594;DHT22;33199;47.590;8.300;2022-12-10T06:58:37;8.20;76.50
30594;DHT22;33199;47.590;8.300;2022-12-10T07:01:06;8.30;76.30
30594;DHT22;33199;47.590;8.300;2022-12-10T07:03:32;8.30;76.30
30594;DHT22;33199;47.590;8.300;2022-12-10T07:05:58;8.20;76.20
30594;DHT22;33199;47.590;8.300;2022-12-10T07:08:24;8.20;76.40
30594;DHT22;33199;47.590;8.300;2022-12-10T07:10:49;8.30;76.50
30594;DHT22;33199;47.590;8.300;2022-12-10T07:13:14;8.20;76.30
30594;DHT22;33199;47.590;8.300;2022-12-10T07:15:40;8.30;77.40
30594;DHT22;33199;47.590;8.300;2022-12-10T07:18:05;8.20;76.50
30594;DHT22;33199;47.590;8.300;2022-12-10T07:20:31;8.20;76.50
30594;DHT22;33199;47.590;8.300;2022-12-10T07:22:56;8.30;76.50
30594;DHT22;33199;47.590;8.300;2022-12-10T07:25:22;8.30;76.50
30594;DHT22;33199;47.590;8.300;2022-12-10T07:27:49;8.30;76.30
30594;DHT22;33199;47.590;8.300;2022-12-10T07:30:15;8.20;76.50
30594;DHT22;33199;47.590;8.300;2022-12-10T07:32:40;8.30;76.40
30594;DHT22;33199;47.590;8.300;2022-12-10T07:35:05;8.30;76.60
30594;DHT22;33199;47.590;8.300;2022-12-10T07:37:31;8.20;76.50
30594;DHT22;33199;47.590;8.300;2022-12-10T07:39:58;8.30;76.30
30594;DHT22;33199;47.590;8.300;2022-12-10T07:42:23;8.30;76.50
30594;DHT22;33199;47.590;8.300;2022-12-10T07:44:49;8.20;76.40
30594;DHT22;33199;47.590;8.300;2022-12-10T07:47:14;8.30;76.40
30594;DHT22;33199;47.590;8.300;2022-12-10T07:49:40;8.30;76.40
30594;DHT22;33199;47.590;8.300;2022-12-10T07:52:05;8.30;76.30
30594;DHT22;33199;47.590;8.300;2022-12-10T07:54:31;8.20;76.40
30594;DHT22;33199;47.590;8.300;2022-12-10T07:56:56;8.20;76.30
30594;DHT22;33199;47.590;8.300;2022-12-10T07:59:22;8.20;76.30
30594;DHT22;33199;47.590;8.300;2022-12-10T08:01:47;8.20;76.40
30594;DHT22;33199;47.590;8.300;2022-12-10T08:04:14;8.20;76.50
30594;DHT22;33199;47.590;8.300;2022-12-10T08:06:40;8.20;76.40
30594;DHT22;33199;47.590;8.300;2022-12-10T08:09:05;8.20;76.40
30594;DHT22;33199;47.590;8.300;2022-12-10T08:11:31;8.30;76.50
30594;DHT22;33199;47.590;8.300;2022-12-10T08:13:57;8.20;76.40
30594;DHT22;33199;47.590;8.300;2022-12-10T08:16:24;8.30;76.20
30594;DHT22;33199;47.590;8.300;2022-12-10T08:18:53;8.20;76.50
30594;DHT22;33199;47.590;8.300;2022-12-10T08:21:21;8.20;76.40
30594;DHT22;33199;47.590;8.300;2022-12-10T08:23:47;8.20;76.40
30594;DHT22;33199;47.590;8.300;2022-12-10T08:26:13;8.20;76.50
30594;DHT22;33199;47.590;8.300;2022-12-10T08:28:39;8.20;76.50
30594;DHT22;33199;47.590;8.300;2022-12-10T08:31:05;8.20;76.30
30594;DHT22;33199;47.590;8.300;2022-12-10T08:33:32;8.30;76.60
30594;DHT22;33199;47.590;8.300;2022-12-10T08:35:58;8.20;76.50
30594;DHT22;33199;47.590;8.300;2022-12-10T08:38:25;8.30;76.30
30594;DHT22;33199;47.590;8.300;2022-12-10T08:40:50;8.30;76.50
30594;DHT22;33199;47.590;8.300;2022-12-10T08:43:16;8.20;76.40
30594;DHT22;33199;47.590;8.300;2022-12-10T08:45:41;8.20;76.50
30594;DHT22;33199;47.590;8.300;2022-12-10T08:48:07;8.30;76.50
30594;DHT22;33199;47.590;8.300;2022-12-10T08:50:32;8.20;76.40
30594;DHT22;33199;47.590;8.300;2022-12-10T08:52:58;8.20;76.20
30594;DHT22;33199;47.590;8.300;2022-12-10T08:55:24;8.20;76.30
30594;DHT22;33199;47.590;8.300;2022-12-10T08:57:50;8.20;76.50
30594;DHT22;33199;47.590;8.300;2022-12-10T09:00:15;8.20;76.30
30594;DHT22;33199;47.590;8.300;2022-12-10T09:02:41;8.20;76.40
30594;DHT22;33199;47.590;8.300;2022-12-10T09:05:07;8.20;76.40
30594;DHT22;33199;47.590;8.300;2022-12-10T09:07:33;8.20;76.80
30594;DHT22;33199;47.590;8.300;2022-12-10T09:09:58;8.30;76.50
30594;DHT22;33199;47.590;8.300;2022-12-10T09:12:23;8.20;76.40
30594;DHT22;33199;47.590;8.300;2022-12-10T09:14:49;8.30;76.40
30594;DHT22;33199;47.590;8.300;2022-12-10T09:17:14;8.20;76.50
30594;DHT22;33199;47.590;8.300;2022-12-10T09:19:40;8.20;76.30
30594;DHT22;33199;47.590;8.300;2022-12-10T09:22:05;8.20;76.50
30594;DHT22;33199;47.590;8.300;2022-12-10T09:24:31;8.20;76.40
30594;DHT22;33199;47.590;8.300;2022-12-10T09:26:56;8.20;76.50
30594;DHT22;33199;47.590;8.300;2022-12-10T09:29:22;8.20;76.50
30594;DHT22;33199;47.590;8.300;2022-12-10T09:31:50;8.20;76.60
30594;DHT22;33199;47.590;8.300;2022-12-10T09:34:16;8.30;76.60
30594;DHT22;33199;47.590;8.300;2022-12-10T09:36:42;8.20;76.50
30594;DHT22;33199;47.590;8.300;2022-12-10T09:39:07;8.20;76.50
30594;DHT22;33199;47.590;8.300;2022-12-10T09:49:08;8.20;76.30
30594;DHT22;33199;47.590;8.300;2022-12-10T09:51:38;8.20;76.50
30594;DHT22;33199;47.590;8.300;2022-12-10T09:54:11;8.20;76.20
30594;DHT22;33199;47.590;8.300;2022-12-10T09:56:40;8.20;76.30
30594;DHT22;33199;47.590;8.300;2022-12-10T09:59:48;8.20;76.40
30594;DHT22;33199;47.590;8.300;2022-12-10T10:02:16;8.30;76.50
30594;DHT22;33199;47.590;8.300;2022-12-10T10:04:40;8.20;76.50
30594;DHT22;33199;47.590;8.300;2022-12-10T10:07:05;8.20;76.50
30594;DHT22;33199;47.590;8.300;2022-12-10T10:09:39;8.20;76.50
30594;DHT22;33199;47.590;8.300;2022-12-10T10:12:14;8.20;76.50
30594;DHT22;33199;47.590;8.300;2022-12-10T10:14:40;8.20;76.70
30594;DHT22;33199;47.590;8.300;2022-12-10T10:17:49;8.20;76.50
30594;DHT22;33199;47.590;8.300;2022-12-10T10:19:55;8.20;76.50
30594;DHT22;33199;47.590;8.300;2022-12-10T10:22:21;8.20;76.30
30594;DHT22;33199;47.590;8.300;2022-12-10T10:24:47;8.20;76.50
30594;DHT22;33199;47.590;8.300;2022-12-10T10:27:16;8.20;76.50
30594;DHT22;33199;47.590;8.300;2022-12-10T10:29:46;8.20;76.60
30594;DHT22;33199;47.590;8.300;2022-12-10T10:32:16;8.20;76.50
30594;DHT22;33199;47.590;8.300;2022-12-10T10:34:42;8.20;76.50
30594;DHT22;33199;47.590;8.300;2022-12-10T10:37:14;8.20;76.50
30594;DHT22;33199;47.590;8.300;2022-12-10T10:39:40;8.20;76.50
30594;DHT22;33199;47.590;8.300;2022-12-10T10:42:11;8.20;76.40
30594;DHT22;33199;47.590;8.300;2022-12-10T10:44:40;8.20;76.40
30594;DHT22;33199;47.590;8.300;2022-12-10T10:49:51;8.20;76.50
30594;DHT22;33199;47.590;8.300;2022-12-10T10:52:17;8.20;76.50
30594;DHT22;33199;47.590;8.300;2022-12-10T10:54:43;8.20;76.60
30594;DHT22;33199;47.590;8.300;2022-12-10T10:57:28;8.20;76.50
30594;DHT22;33199;47.590;8.300;2022-12-10T10:59:55;8.20;76.50
30594;DHT22;33199;47.590;8.300;2022-12-10T11:02:32;8.20;76.50
30594;DHT22;33199;47.590;8.300;2022-12-10T11:05:03;8.20;76.50
30594;DHT22;33199;47.590;8.300;2022-12-10T11:09:55;8.20;76.50
30594;DHT22;33199;47.590;8.300;2022-12-10T11:14:58;8.20;76.50
30594;DHT22;33199;47.590;8.300;2022-12-10T11:17:25;8.20;76.50
30594;DHT22;33199;47.590;8.300;2022-12-10T11:22:23;8.20;76.50
30594;DHT22;33199;47.590;8.300;2022-12-10T11:24:49;8.20;76.50
30594;DHT22;33199;47.590;8.300;2022-12-10T11:27:59;8.20;76.50
30594;DHT22;33199;47.590;8.300;2022-12-10T11:30:04;8.20;76.50
30594;DHT22;33199;47.590;8.300;2022-12-10T11:35:10;8.20;76.60
30594;DHT22;33199;47.590;8.300;2022-12-10T11:40:25;8.20;76.70
30594;DHT22;33199;47.590;8.300;2022-12-10T11:43:35;8.20;76.50
30594;DHT22;33199;47.590;8.300;2022-12-10T11:51:08;8.20;76.50
30594;DHT22;33199;47.590;8.300;2022-12-10T12:04:20;8.20;76.60
30594;DHT22;33199;47.590;8.300;2022-12-10T12:14:31;8.20;76.70
30594;DHT22;33199;47.590;8.300;2022-12-10T12:17:03;8.20;76.70
30594;DHT22;33199;47.590;8.300;2022-12-10T12:22:27;8.20;76.70
30594;DHT22;33199;47.590;8.300;2022-12-10T12:24:55;8.20;74.70
30594;DHT22;33199;47.590;8.300;2022-12-10T12:29:57;8.00;71.60
30594;DHT22;33199;47.590;8.300;2022-12-10T12:34:52;7.80;69.40
30594;DHT22;33199;47.590;8.300;2022-12-10T12:37:21;7.80;70.80
30594;DHT22;33199;47.590;8.300;2022-12-10T12:39:58;7.70;71.70
30594;DHT22;33199;47.590;8.300;2022-12-10T12:42:33;7.70;72.20
30594;DHT22;33199;47.590;8.300;2022-12-10T12:45:04;7.80;72.90
30594;DHT22;33199;47.590;8.300;2022-12-10T12:52:51;7.90;73.80
30594;DHT22;33199;47.590;8.300;2022-12-10T12:55:19;7.90;73.90
30594;DHT22;33199;47.590;8.300;2022-12-10T12:57:56;7.90;74.10
30594;DHT22;33199;47.590;8.300;2022-12-10T13:00:26;7.90;75.00
30594;DHT22;33199;47.590;8.300;2022-12-10T13:03:05;7.90;74.30
30594;DHT22;33199;47.590;8.300;2022-12-10T13:05:35;7.90;74.50
30594;DHT22;33199;47.590;8.300;2022-12-10T13:15:42;8.10;74.80
30594;DHT22;33199;47.590;8.300;2022-12-10T13:23:46;8.00;75.00
30594;DHT22;33199;47.590;8.300;2022-12-10T13:26:00;8.10;75.10
30594;DHT22;33199;47.590;8.300;2022-12-10T13:36:19;8.10;75.10
30594;DHT22;33199;47.590;8.300;2022-12-10T13:39:47;8.10;75.30
30594;DHT22;33199;47.590;8.300;2022-12-10T13:41:41;8.10;75.30
30594;DHT22;33199;47.590;8.300;2022-12-10T13:49:43;8.10;75.50
30594;DHT22;33199;47.590;8.300;2022-12-10T13:52:15;8.10;75.50
30594;DHT22;33199;47.590;8.300;2022-12-10T13:54:44;8.10;75.50
30594;DHT22;33199;47.590;8.300;2022-12-10T14:04:49;8.10;75.40
30594;DHT22;33199;47.590;8.300;2022-12-10T14:07:23;8.10;75.40
30594;DHT22;33199;47.590;8.300;2022-12-10T14:09:53;8.10;75.40
30594;DHT22;33199;47.590;8.300;2022-12-10T14:12:23;8.20;75.40
30594;DHT22;33199;47.590;8.300;2022-12-10T14:14:52;8.10;75.50
30594;DHT22;33199;47.590;8.300;2022-12-10T14:17:18;8.10;75.60
30594;DHT22;33199;47.590;8.300;2022-12-10T14:19:46;8.10;75.50
30594;DHT22;33199;47.590;8.300;2022-12-10T14:22:16;8.20;75.50
30594;DHT22;33199;47.590;8.300;2022-12-10T14:24:43;8.10;75.40
30594;DHT22;33199;47.590;8.300;2022-12-10T14:27:28;8.20;75.50
30594;DHT22;33199;47.590;8.300;2022-12-10T14:30:00;8.20;75.40
30594;DHT22;33199;47.590;8.300;2022-12-10T14:32:34;8.20;75.50
30594;DHT22;33199;47.590;8.300;2022-12-10T14:35:00;8.20;75.50
30594;DHT22;33199;47.590;8.300;2022-12-10T14:37:31;8.20;75.50
30594;DHT22;33199;47.590;8.300;2022-12-10T14:39:57;8.20;75.60
30594;DHT22;33199;47.590;8.300;2022-12-10T14:42:23;8.20;75.50
30594;DHT22;33199;47.590;8.300;2022-12-10T14:44:58;8.20;75.40
30594;DHT22;33199;47.590;8.300;2022-12-10T14:47:24;8.20;75.60
30594;DHT22;33199;47.590;8.300;2022-12-10T14:49:51;8.20;75.50
30594;DHT22;33199;47.590;8.300;2022-12-10T14:52:17;8.20;75.60
30594;DHT22;33199;47.590;8.300;2022-12-10T14:54:43;8.20;75.50
30594;DHT22;33199;47.590;8.300;2022-12-10T14:57:13;8.20;75.40
30594;DHT22;33199;47.590;8.300;2022-12-10T14:59:40;8.20;75.70
30594;DHT22;33199;47.590;8.300;2022-12-10T15:02:20;8.20;75.70
30594;DHT22;33199;47.590;8.300;2022-12-10T15:04:47;8.20;75.80
30594;DHT22;33199;47.590;8.300;2022-12-10T15:07:14;8.20;75.60
30594;DHT22;33199;47.590;8.300;2022-12-10T15:09:40;8.20;75.50
30594;DHT22;33199;47.590;8.300;2022-12-10T15:12:15;8.20;75.40
30594;DHT22;33199;47.590;8.300;2022-12-10T15:14:44;8.20;75.40
30594;DHT22;33199;47.590;8.300;2022-12-10T15:17:32;8.20;75.40
30594;DHT22;33199;47.590;8.300;2022-12-10T15:19:55;8.20;75.70
30594;DHT22;33199;47.590;8.300;2022-12-10T15:22:21;8.30;75.60
30594;DHT22;33199;47.590;8.300;2022-12-10T15:24:47;8.20;75.50
30594;DHT22;33199;47.590;8.300;2022-12-10T15:27:17;8.20;75.50
30594;DHT22;33199;47.590;8.300;2022-12-10T15:29:43;8.20;75.40
30594;DHT22;33199;47.590;8.300;2022-12-10T15:32:12;8.30;75.60
30594;DHT22;33199;47.590;8.300;2022-12-10T15:35:04;8.10;70.30
30594;DHT22;33199;47.590;8.300;2022-12-10T15:37:38;8.00;69.00
30594;DHT22;33199;47.590;8.300;2022-12-10T15:40:05;7.90;69.80
30594;DHT22;33199;47.590;8.300;2022-12-10T15:44:59;7.90;71.30
30594;DHT22;33199;47.590;8.300;2022-12-10T15:47:25;7.90;72.10
30594;DHT22;33199;47.590;8.300;2022-12-10T15:49:52;7.90;72.50
30594;DHT22;33199;47.590;8.300;2022-12-10T15:52:19;7.90;72.60
30594;DHT22;33199;47.590;8.300;2022-12-10T15:54:46;7.90;72.70
30594;DHT22;33199;47.590;8.300;2022-12-10T15:59:47;8.00;72.90
30594;DHT22;33199;47.590;8.300;2022-12-10T16:04:47;7.90;72.00
30594;DHT22;33199;47.590;8.300;2022-12-10T16:07:13;7.90;72.00
30594;DHT22;33199;47.590;8.300;2022-12-10T16:09:41;7.90;72.50
30594;DHT22;33199;47.590;8.300;2022-12-10T16:12:08;7.90;72.50
30594;DHT22;33199;47.590;8.300;2022-12-10T16:14:35;7.90;72.60
30594;DHT22;33199;47.590;8.300;2022-12-10T16:17:01;7.90;72.60
30594;DHT22;33199;47.590;8.300;2022-12-10T16:19:26;7.90;72.60
30594;DHT22;33199;47.590;8.300;2022-12-10T16:21:52;8.00;72.70
30594;DHT22;33199;47.590;8.300;2022-12-10T16:24:17;8.00;72.90
30594;DHT22;33199;47.590;8.300;2022-12-10T16:26:43;8.00;73.10
30594;DHT22;33199;47.590;8.300;2022-12-10T16:29:09;8.00;73.10
30594;DHT22;33199;47.590;8.300;2022-12-10T16:31:35;8.00;73.20
30594;DHT22;33199;47.590;8.300;2022-12-10T16:34:00;8.00;73.20
30594;DHT22;33199;47.590;8.300;2022-12-10T16:36:26;8.00;71.10
30594;DHT22;33199;47.590;8.300;2022-12-10T16:38:51;7.80;67.90
30594;DHT22;33199;47.590;8.300;2022-12-10T16:41:18;7.70;69.30
30594;DHT22;33199;47.590;8.300;2022-12-10T16:43:44;7.60;70.30
30594;DHT22;33199;47.590;8.300;2022-12-10T16:46:10;7.60;71.10
30594;DHT22;33199;47.590;8.300;2022-12-10T16:48:36;7.60;71.90
30594;DHT22;33199;47.590;8.300;2022-12-10T16:51:02;7.60;72.30
30594;DHT22;33199;47.590;8.300;2022-12-10T16:53:28;7.60;72.70
30594;DHT22;33199;47.590;8.300;2022-12-10T16:55:54;7.60;73.10
30594;DHT22;33199;47.590;8.300;2022-12-10T16:58:21;7.60;73.40
30594;DHT22;33199;47.590;8.300;2022-12-10T17:00:47;7.60;73.60
30594;DHT22;33199;47.590;8.300;2022-12-10T17:03:13;7.60;73.70
30594;DHT22;33199;47.590;8.300;2022-12-10T17:05:58;7.70;73.80
30594;DHT22;33199;47.590;8.300;2022-12-10T17:08:24;7.70;73.60
30594;DHT22;33199;47.590;8.300;2022-12-10T17:10:51;7.60;71.40
30594;DHT22;33199;47.590;8.300;2022-12-10T17:13:35;7.60;71.60
30594;DHT22;33199;47.590;8.300;2022-12-10T17:16:01;7.50;69.90
30594;DHT22;33199;47.590;8.300;2022-12-10T17:18:26;7.50;71.40
30594;DHT22;33199;47.590;8.300;2022-12-10T17:20:52;7.50;72.40
30594;DHT22;33199;47.590;8.300;2022-12-10T17:23:17;7.40;72.80
30594;DHT22;33199;47.590;8.300;2022-12-10T17:25:43;7.40;73.90
30594;DHT22;33199;47.590;8.300;2022-12-10T17:28:15;7.40;74.30
30594;DHT22;33199;47.590;8.300;2022-12-10T17:30:41;7.50;74.60
30594;DHT22;33199;47.590;8.300;2022-12-10T17:33:10;7.50;74.50
30594;DHT22;33199;47.590;8.300;2022-12-10T17:35:36;7.50;74.70
30594;DHT22;33199;47.590;8.300;2022-12-10T17:38:01;7.50;74.80
30594;DHT22;33199;47.590;8.300;2022-12-10T17:40:28;7.60;74.70
30594;DHT22;33199;47.590;8.300;2022-12-10T17:42:53;7.60;74.60
30594;DHT22;33199;47.590;8.300;2022-12-10T17:45:19;7.60;74.70
30594;DHT22;33199;47.590;8.300;2022-12-10T17:47:45;7.60;74.90
30594;DHT22;33199;47.590;8.300;2022-12-10T17:50:30;7.70;75.10